sensor_id;sensor_type;location;lat;lon;timestamp;pressure;altitude;pressure_sealevel;temperature;humidity
68399;BME280;56258;52.196;13.868;2023-02-16T00:01:51;101962.66;;;19.79;35.40
68399;BME280;56258;52.196;13.868;2023-02-16T00:04:24;101960.38;;;19.84;35.82
68399;BME280;56258;52.196;13.868;2023-02-16T00:06:52;101967.31;;;19.87;35.22
68399;BME280;56258;52.196;13.868;2023-02-16T00:09:19;101960.47;;;19.92;35.36
68399;BME280;56258;52.196;13.868;2023-02-16T00:11:47;101955.28;;;19.99;35.06
68399;BME280;56258;52.196;13.868;2023-02-16T00:14:34;101948.94;;;20.08;35.66
68399;BME280;56258;52.196;13.868;2023-02-16T00:17:02;101953.72;;;20.14;35.39
68399;BME280;56258;52.196;13.868;2023-02-16T00:19:33;101953.59;;;20.16;35.11
68399;BME280;56258;52.196;13.868;2023-02-16T00:22:01;101957.81;;;20.18;35.26
68399;BME280;56258;52.196;13.868;2023-02-16T00:24:29;101963.59;;;20.23;35.33
68399;BME280;56258;52.196;13.868;2023-02-16T00:26:56;101969.22;;;20.30;35.16
68399;BME280;56258;52.196;13.868;2023-02-16T00:29:26;101967.75;;;20.35;35.05
68399;BME280;56258;52.196;13.868;2023-02-16T00:31:54;101973.16;;;20.35;34.85
68399;BME280;56258;52.196;13.868;2023-02-16T00:36:57;101963.47;;;20.43;34.92
68399;BME280;56258;52.196;13.868;2023-02-16T00:39:24;101968.53;;;20.46;34.94
68399;BME280;56258;52.196;13.868;2023-02-16T00:41:57;101972.09;;;20.46;34.70
68399;BME280;56258;52.196;13.868;2023-02-16T00:44:34;101971.94;;;20.48;34.53
68399;BME280;56258;52.196;13.868;2023-02-16T00:47:27;101978.56;;;20.53;35.37
68399;BME280;56258;52.196;13.868;2023-02-16T00:49:52;101964.56;;;20.58;35.09
68399;BME280;56258;52.196;13.868;2023-02-16T00:54:55;101973.59;;;20.66;34.68
68399;BME280;56258;52.196;13.868;2023-02-16T00:57:23;101970.56;;;20.69;34.65
68399;BME280;56258;52.196;13.868;2023-02-16T01:00:18;101974.50;;;20.75;34.64
68399;BME280;56258;52.196;13.868;2023-02-16T01:02:48;101973.94;;;20.72;34.82
68399;BME280;56258;52.196;13.868;2023-02-16T01:05:16;101974.13;;;20.70;34.43
68399;BME280;56258;52.196;13.868;2023-02-16T01:07:42;101967.69;;;20.71;34.56
68399;BME280;56258;52.196;13.868;2023-02-16T01:10:30;101962.00;;;20.74;34.61
68399;BME280;56258;52.196;13.868;2023-02-16T01:13:16;101949.19;;;20.76;35.02
68399;BME280;56258;52.196;13.868;2023-02-16T01:15:43;101955.25;;;20.78;34.49
68399;BME280;56258;52.196;13.868;2023-02-16T01:18:14;101956.78;;;20.81;34.38
68399;BME280;56258;52.196;13.868;2023-02-16T01:20:41;101956.63;;;20.82;34.63
68399;BME280;56258;52.196;13.868;2023-02-16T01:23:08;101961.56;;;20.87;34.17
68399;BME280;56258;52.196;13.868;2023-02-16T01:25:35;101958.38;;;20.91;34.26
68399;BME280;56258;52.196;13.868;2023-02-16T01:28:22;101956.19;;;20.95;34.80
68399;BME280;56258;52.196;13.868;2023-02-16T01:30:51;101955.16;;;20.88;34.90
68399;BME280;56258;52.196;13.868;2023-02-16T01:33:19;101959.22;;;20.92;34.27
68399;BME280;56258;52.196;13.868;2023-02-16T01:35:46;101953.47;;;20.95;34.34
68399;BME280;56258;52.196;13.868;2023-02-16T01:38:25;101955.22;;;20.96;34.20
68399;BME280;56258;52.196;13.868;2023-02-16T01:41:16;101953.19;;;20.98;34.64
68399;BME280;56258;52.196;13.868;2023-02-16T01:43:55;101950.66;;;20.96;34.19
68399;BME280;56258;52.196;13.868;2023-02-16T01:49:37;101957.41;;;21.01;34.59
68399;BME280;56258;52.196;13.868;2023-02-16T01:52:21;101956.06;;;21.05;34.64
68399;BME280;56258;52.196;13.868;2023-02-16T01:57:46;101955.06;;;21.06;34.08
68399;BME280;56258;52.196;13.868;2023-02-16T02:03:00;101955.63;;;21.09;34.35
68399;BME280;56258;52.196;13.868;2023-02-16T02:05:47;101962.72;;;21.10;34.12
68399;BME280;56258;52.196;13.868;2023-02-16T02:13:35;101946.84;;;21.15;34.36
68399;BME280;56258;52.196;13.868;2023-02-16T02:16:04;101944.13;;;21.15;33.81
68399;BME280;56258;52.196;13.868;2023-02-16T02:18:31;101942.97;;;21.18;33.99
68399;BME280;56258;52.196;13.868;2023-02-16T02:21:27;101936.56;;;21.19;33.78
68399;BME280;56258;52.196;13.868;2023-02-16T02:30:04;101923.88;;;21.19;34.39
68399;BME280;56258;52.196;13.868;2023-02-16T02:35:53;101929.81;;;21.23;33.83
68399;BME280;56258;52.196;13.868;2023-02-16T02:38:32;101931.50;;;21.24;33.95
68399;BME280;56258;52.196;13.868;2023-02-16T02:41:22;101930.50;;;21.25;34.36
68399;BME280;56258;52.196;13.868;2023-02-16T02:44:12;101921.22;;;21.27;34.42
68399;BME280;56258;52.196;13.868;2023-02-16T02:46:40;101919.53;;;21.26;33.82
68399;BME280;56258;52.196;13.868;2023-02-16T02:49:07;101922.78;;;21.38;33.68
68399;BME280;56258;52.196;13.868;2023-02-16T02:51:33;101921.81;;;21.47;33.46
68399;BME280;56258;52.196;13.868;2023-02-16T02:54:09;101917.38;;;21.38;33.68
68399;BME280;56258;52.196;13.868;2023-02-16T02:57:02;101922.72;;;21.22;33.26
68399;BME280;56258;52.196;13.868;2023-02-16T03:00:13;101917.53;;;21.03;33.97
68399;BME280;56258;52.196;13.868;2023-02-16T03:03:07;101918.03;;;20.72;34.27
68399;BME280;56258;52.196;13.868;2023-02-16T03:05:37;101920.03;;;20.62;34.22
68399;BME280;56258;52.196;13.868;2023-02-16T03:08:11;101920.47;;;20.49;34.89
68399;BME280;56258;52.196;13.868;2023-02-16T03:10:47;101919.13;;;20.35;34.80
68399;BME280;56258;52.196;13.868;2023-02-16T03:13:37;101922.41;;;20.21;34.93
68399;BME280;56258;52.196;13.868;2023-02-16T03:16:14;101914.78;;;20.17;35.05
68399;BME280;56258;52.196;13.868;2023-02-16T03:18:43;101924.41;;;20.01;34.96
68399;BME280;56258;52.196;13.868;2023-02-16T03:21:30;101917.97;;;19.94;34.90
68399;BME280;56258;52.196;13.868;2023-02-16T03:24:28;101921.41;;;19.87;35.12
68399;BME280;56258;52.196;13.868;2023-02-16T03:27:17;101919.63;;;19.77;35.30
68399;BME280;56258;52.196;13.868;2023-02-16T03:30:06;101914.78;;;19.63;35.75
68399;BME280;56258;52.196;13.868;2023-02-16T03:32:33;101926.50;;;19.44;35.50
68399;BME280;56258;52.196;13.868;2023-02-16T03:35:00;101909.88;;;19.21;36.38
68399;BME280;56258;52.196;13.868;2023-02-16T03:37:27;101914.19;;;19.14;36.00
68399;BME280;56258;52.196;13.868;2023-02-16T03:39:53;101912.09;;;19.08;36.03
68399;BME280;56258;52.196;13.868;2023-02-16T03:42:39;101911.84;;;19.02;35.96
68399;BME280;56258;52.196;13.868;2023-02-16T03:45:06;101907.81;;;18.88;36.05
68399;BME280;56258;52.196;13.868;2023-02-16T03:47:32;101912.47;;;18.86;36.38
68399;BME280;56258;52.196;13.868;2023-02-16T03:49:59;101917.72;;;18.87;36.13
68399;BME280;56258;52.196;13.868;2023-02-16T03:52:25;101910.38;;;18.80;36.34
68399;BME280;56258;52.196;13.868;2023-02-16T03:54:52;101917.09;;;18.66;36.70
68399;BME280;56258;52.196;13.868;2023-02-16T03:57:18;101913.09;;;18.51;36.89
68399;BME280;56258;52.196;13.868;2023-02-16T03:59:45;101916.41;;;18.25;37.38
68399;BME280;56258;52.196;13.868;2023-02-16T04:02:12;101916.00;;;18.11;37.27
68399;BME280;56258;52.196;13.868;2023-02-16T04:04:38;101913.88;;;18.14;37.47
68399;BME280;56258;52.196;13.868;2023-02-16T04:07:05;101914.31;;;18.10;37.31
68399;BME280;56258;52.196;13.868;2023-02-16T04:09:31;101916.84;;;17.92;37.94
68399;BME280;56258;52.196;13.868;2023-02-16T04:11:58;101924.94;;;17.92;37.43
68399;BME280;56258;52.196;13.868;2023-02-16T04:14:43;101925.06;;;17.71;37.85
68399;BME280;56258;52.196;13.868;2023-02-16T04:17:10;101926.63;;;17.73;38.36
68399;BME280;56258;52.196;13.868;2023-02-16T04:19:36;101929.88;;;17.77;38.13
68399;BME280;56258;52.196;13.868;2023-02-16T04:22:03;101926.63;;;17.73;38.27
68399;BME280;56258;52.196;13.868;2023-02-16T04:24:29;101915.81;;;17.54;38.61
68399;BME280;56258;52.196;13.868;2023-02-16T04:26:56;101925.44;;;17.57;38.22
68399;BME280;56258;52.196;13.868;2023-02-16T04:29:23;101914.53;;;17.48;37.90
68399;BME280;56258;52.196;13.868;2023-02-16T04:31:49;101915.91;;;17.33;38.91
68399;BME280;56258;52.196;13.868;2023-02-16T04:34:16;101917.59;;;17.34;37.89
68399;BME280;56258;52.196;13.868;2023-02-16T04:36:42;101911.94;;;17.28;37.98
68399;BME280;56258;52.196;13.868;2023-02-16T04:39:09;101916.44;;;17.17;39.11
68399;BME280;56258;52.196;13.868;2023-02-16T04:41:36;101909.34;;;17.16;38.38
68399;BME280;56258;52.196;13.868;2023-02-16T04:44:02;101904.25;;;17.13;38.58
68399;BME280;56258;52.196;13.868;2023-02-16T04:46:29;101909.34;;;17.16;38.95
68399;BME280;56258;52.196;13.868;2023-02-16T04:48:55;101910.06;;;17.18;38.04
68399;BME280;56258;52.196;13.868;2023-02-16T04:51:22;101906.34;;;17.10;38.06
68399;BME280;56258;52.196;13.868;2023-02-16T04:53:49;101908.38;;;17.17;37.85
68399;BME280;56258;52.196;13.868;2023-02-16T04:56:16;101910.63;;;17.22;38.66
68399;BME280;56258;52.196;13.868;2023-02-16T04:58:42;101892.41;;;17.35;37.65
68399;BME280;56258;52.196;13.868;2023-02-16T05:01:20;101899.63;;;17.35;38.30
68399;BME280;56258;52.196;13.868;2023-02-16T05:03:47;101894.09;;;17.17;37.72
68399;BME280;56258;52.196;13.868;2023-02-16T05:06:14;101896.59;;;17.09;38.34
68399;BME280;56258;52.196;13.868;2023-02-16T05:08:41;101895.06;;;17.16;38.45
68399;BME280;56258;52.196;13.868;2023-02-16T05:11:07;101898.00;;;17.13;38.68
68399;BME280;56258;52.196;13.868;2023-02-16T05:13:57;101901.00;;;17.19;38.50
68399;BME280;56258;52.196;13.868;2023-02-16T05:16:43;101893.22;;;17.16;38.47
68399;BME280;56258;52.196;13.868;2023-02-16T05:19:10;101902.53;;;17.03;38.10
68399;BME280;56258;52.196;13.868;2023-02-16T05:21:38;101891.97;;;16.80;38.53
68399;BME280;56258;52.196;13.868;2023-02-16T05:24:07;101892.28;;;16.66;38.61
68399;BME280;56258;52.196;13.868;2023-02-16T05:26:36;101900.53;;;16.53;39.58
68399;BME280;56258;52.196;13.868;2023-02-16T05:29:03;101905.47;;;16.48;39.73
68399;BME280;56258;52.196;13.868;2023-02-16T05:31:29;101901.88;;;16.38;39.83
68399;BME280;56258;52.196;13.868;2023-02-16T05:33:56;101900.59;;;16.32;39.81
68399;BME280;56258;52.196;13.868;2023-02-16T05:36:23;101897.84;;;16.23;39.62
68399;BME280;56258;52.196;13.868;2023-02-16T05:38:50;101901.75;;;16.19;40.03
68399;BME280;56258;52.196;13.868;2023-02-16T05:41:16;101905.53;;;16.16;39.81
68399;BME280;56258;52.196;13.868;2023-02-16T05:43:54;101900.81;;;16.09;40.26
68399;BME280;56258;52.196;13.868;2023-02-16T05:46:21;101900.81;;;16.09;39.67
68399;BME280;56258;52.196;13.868;2023-02-16T05:48:49;101904.47;;;16.08;39.83
68399;BME280;56258;52.196;13.868;2023-02-16T05:51:16;101909.13;;;16.05;40.39
68399;BME280;56258;52.196;13.868;2023-02-16T05:53:43;101913.63;;;16.05;40.40
68399;BME280;56258;52.196;13.868;2023-02-16T05:56:10;101909.53;;;16.01;39.84
68399;BME280;56258;52.196;13.868;2023-02-16T05:58:37;101919.63;;;15.97;40.46
68399;BME280;56258;52.196;13.868;2023-02-16T06:01:04;101916.09;;;15.97;40.18
68399;BME280;56258;52.196;13.868;2023-02-16T06:03:32;101918.06;;;15.95;39.91
68399;BME280;56258;52.196;13.868;2023-02-16T06:06:00;101921.75;;;15.94;40.56
68399;BME280;56258;52.196;13.868;2023-02-16T06:08:27;101920.03;;;15.93;40.42
68399;BME280;56258;52.196;13.868;2023-02-16T06:10:54;101919.31;;;15.91;40.11
68399;BME280;56258;52.196;13.868;2023-02-16T06:13:22;101919.59;;;15.88;40.33
68399;BME280;56258;52.196;13.868;2023-02-16T06:15:54;101919.59;;;15.88;39.77
68399;BME280;56258;52.196;13.868;2023-02-16T06:18:22;101918.72;;;15.87;39.86
68399;BME280;56258;52.196;13.868;2023-02-16T06:20:50;101916.41;;;15.83;40.24
68399;BME280;56258;52.196;13.868;2023-02-16T06:23:17;101919.44;;;15.89;40.22
68399;BME280;56258;52.196;13.868;2023-02-16T06:25:47;101920.03;;;15.93;39.90
68399;BME280;56258;52.196;13.868;2023-02-16T06:28:14;101926.38;;;15.92;39.91
68399;BME280;56258;52.196;13.868;2023-02-16T06:30:40;101924.31;;;15.84;39.71
68399;BME280;56258;52.196;13.868;2023-02-16T06:33:08;101930.94;;;15.80;40.13
68399;BME280;56258;52.196;13.868;2023-02-16T06:35:34;101931.06;;;15.79;40.11
68399;BME280;56258;52.196;13.868;2023-02-16T06:38:01;101934.47;;;15.81;40.19
68399;BME280;56258;52.196;13.868;2023-02-16T06:40:27;101929.47;;;16.08;40.33
68399;BME280;56258;52.196;13.868;2023-02-16T06:42:56;101927.59;;;16.41;38.92
68399;BME280;56258;52.196;13.868;2023-02-16T06:45:23;101926.75;;;16.61;38.68
68399;BME280;56258;52.196;13.868;2023-02-16T06:47:49;101933.53;;;16.86;39.11
68399;BME280;56258;52.196;13.868;2023-02-16T06:50:16;101930.50;;;17.00;39.27
68399;BME280;56258;52.196;13.868;2023-02-16T06:52:43;101937.16;;;16.75;38.95
68399;BME280;56258;52.196;13.868;2023-02-16T06:55:09;101938.25;;;16.94;38.30
68399;BME280;56258;52.196;13.868;2023-02-16T06:57:36;101933.94;;;17.12;38.01
68399;BME280;56258;52.196;13.868;2023-02-16T07:00:04;101934.53;;;17.15;38.47
68399;BME280;56258;52.196;13.868;2023-02-16T07:02:32;101938.59;;;17.10;37.90
68399;BME280;56258;52.196;13.868;2023-02-16T07:04:59;101939.31;;;17.12;37.74
68399;BME280;56258;52.196;13.868;2023-02-16T07:07:25;101934.75;;;17.03;38.49
68399;BME280;56258;52.196;13.868;2023-02-16T07:09:52;101943.91;;;16.90;38.20
68399;BME280;56258;52.196;13.868;2023-02-16T07:12:18;101934.59;;;16.95;37.90
68399;BME280;56258;52.196;13.868;2023-02-16T07:14:45;101934.66;;;16.83;38.46
68399;BME280;56258;52.196;13.868;2023-02-16T07:17:12;101933.81;;;16.83;38.78
68399;BME280;56258;52.196;13.868;2023-02-16T07:19:38;101942.22;;;16.99;38.49
68399;BME280;56258;52.196;13.868;2023-02-16T07:22:05;101934.44;;;16.96;38.66
68399;BME280;56258;52.196;13.868;2023-02-16T07:24:31;101930.50;;;17.00;38.43
68399;BME280;56258;52.196;13.868;2023-02-16T07:26:58;101935.63;;;17.03;38.23
68399;BME280;56258;52.196;13.868;2023-02-16T07:29:24;101931.34;;;17.01;37.53
68399;BME280;56258;52.196;13.868;2023-02-16T07:31:51;101927.38;;;16.95;37.43
68399;BME280;56258;52.196;13.868;2023-02-16T07:34:18;101930.38;;;16.71;38.73
68399;BME280;56258;52.196;13.868;2023-02-16T07:36:47;101919.19;;;16.55;38.31
68399;BME280;56258;52.196;13.868;2023-02-16T07:39:13;101931.34;;;16.70;38.45
68399;BME280;56258;52.196;13.868;2023-02-16T07:41:40;101942.25;;;16.78;37.89
68399;BME280;56258;52.196;13.868;2023-02-16T07:44:07;101941.47;;;16.67;38.09
68399;BME280;56258;52.196;13.868;2023-02-16T07:46:34;101948.50;;;16.58;38.92
68399;BME280;56258;52.196;13.868;2023-02-16T07:49:00;101951.28;;;16.68;38.65
68399;BME280;56258;52.196;13.868;2023-02-16T07:51:29;101949.47;;;16.57;37.98
68399;BME280;56258;52.196;13.868;2023-02-16T07:53:57;101951.19;;;16.58;38.14
68399;BME280;56258;52.196;13.868;2023-02-16T07:56:27;101944.41;;;16.63;38.56
68399;BME280;56258;52.196;13.868;2023-02-16T07:58:55;101946.75;;;16.68;37.64
68399;BME280;56258;52.196;13.868;2023-02-16T08:01:23;101942.72;;;16.62;38.60
68399;BME280;56258;52.196;13.868;2023-02-16T08:03:50;101951.25;;;16.47;38.44
68399;BME280;56258;52.196;13.868;2023-02-16T08:06:17;101942.22;;;16.48;38.12
68399;BME280;56258;52.196;13.868;2023-02-16T08:08:44;101945.91;;;16.68;38.06
68399;BME280;56258;52.196;13.868;2023-02-16T08:11:23;101945.03;;;16.67;37.70
68399;BME280;56258;52.196;13.868;2023-02-16T08:13:50;101939.06;;;16.84;37.65
68399;BME280;56258;52.196;13.868;2023-02-16T08:16:28;101942.00;;;16.81;38.04
68399;BME280;56258;52.196;13.868;2023-02-16T08:18:56;101943.50;;;16.95;37.45
68399;BME280;56258;52.196;13.868;2023-02-16T08:21:25;101935.28;;;16.97;36.86
68399;BME280;56258;52.196;13.868;2023-02-16T08:26:25;101932.03;;;17.33;36.13
68399;BME280;56258;52.196;13.868;2023-02-16T08:28:52;101922.25;;;17.32;36.57
68399;BME280;56258;52.196;13.868;2023-02-16T08:31:21;101928.41;;;17.54;36.12
68399;BME280;56258;52.196;13.868;2023-02-16T08:33:52;101931.91;;;17.44;35.82
68399;BME280;56258;52.196;13.868;2023-02-16T08:36:21;101926.69;;;17.43;35.85
68399;BME280;56258;52.196;13.868;2023-02-16T08:38:50;101929.09;;;17.56;35.93
68399;BME280;56258;52.196;13.868;2023-02-16T08:41:18;101915.22;;;17.41;36.45
68399;BME280;56258;52.196;13.868;2023-02-16T08:43:46;101920.66;;;17.20;36.25
68399;BME280;56258;52.196;13.868;2023-02-16T08:46:13;101914.44;;;17.19;36.32
68399;BME280;56258;52.196;13.868;2023-02-16T08:48:40;101912.47;;;17.21;36.20
68399;BME280;56258;52.196;13.868;2023-02-16T08:51:12;101916.28;;;17.19;36.45
68399;BME280;56258;52.196;13.868;2023-02-16T08:53:39;101915.88;;;17.14;37.00
68399;BME280;56258;52.196;13.868;2023-02-16T08:56:06;101908.28;;;17.48;35.51
68399;BME280;56258;52.196;13.868;2023-02-16T08:58:36;101913.38;;;17.41;36.39
68399;BME280;56258;52.196;13.868;2023-02-16T09:01:06;101915.38;;;17.59;35.96
68399;BME280;56258;52.196;13.868;2023-02-16T09:03:35;101917.81;;;17.62;35.32
68399;BME280;56258;52.196;13.868;2023-02-16T09:06:03;101923.41;;;17.30;36.16
68399;BME280;56258;52.196;13.868;2023-02-16T09:08:31;101928.47;;;18.12;34.86
68399;BME280;56258;52.196;13.868;2023-02-16T09:11:10;101926.53;;;18.80;33.25
68399;BME280;56258;52.196;13.868;2023-02-16T09:13:37;101928.53;;;18.78;33.34
68399;BME280;56258;52.196;13.868;2023-02-16T09:16:09;101924.72;;;18.51;34.07
68399;BME280;56258;52.196;13.868;2023-02-16T09:18:36;101921.22;;;18.41;34.08
68399;BME280;56258;52.196;13.868;2023-02-16T09:21:05;101923.03;;;18.41;34.23
68399;BME280;56258;52.196;13.868;2023-02-16T09:23:33;101927.16;;;18.54;34.15
68399;BME280;56258;52.196;13.868;2023-02-16T09:26:01;101924.78;;;18.42;34.01
68399;BME280;56258;52.196;13.868;2023-02-16T09:28:28;101927.91;;;18.18;34.08
68399;BME280;56258;52.196;13.868;2023-02-16T09:30:56;101928.22;;;17.95;34.15
68399;BME280;56258;52.196;13.868;2023-02-16T09:33:22;101925.19;;;17.69;35.35
68399;BME280;56258;52.196;13.868;2023-02-16T09:35:49;101918.75;;;17.41;35.35
68399;BME280;56258;52.196;13.868;2023-02-16T09:38:16;101918.44;;;17.25;36.45
68399;BME280;56258;52.196;13.868;2023-02-16T09:40:44;101920.06;;;16.76;36.69
68399;BME280;56258;52.196;13.868;2023-02-16T09:46:10;101916.22;;;16.69;36.94
68399;BME280;56258;52.196;13.868;2023-02-16T09:48:44;101919.53;;;17.92;34.94
68399;BME280;56258;52.196;13.868;2023-02-16T09:51:16;101911.28;;;18.98;32.98
68399;BME280;56258;52.196;13.868;2023-02-16T09:53:56;101915.94;;;18.59;33.51
68399;BME280;56258;52.196;13.868;2023-02-16T10:05:31;101919.13;;;17.77;34.60
68399;BME280;56258;52.196;13.868;2023-02-16T10:08:07;101921.13;;;17.75;34.69
68399;BME280;56258;52.196;13.868;2023-02-16T10:13:41;101910.34;;;18.04;34.72
68399;BME280;56258;52.196;13.868;2023-02-16T10:16:25;101916.16;;;18.85;33.31
68399;BME280;56258;52.196;13.868;2023-02-16T10:18:56;101919.97;;;19.47;31.99
68399;BME280;56258;52.196;13.868;2023-02-16T10:21:27;101901.97;;;20.01;31.06
68399;BME280;56258;52.196;13.868;2023-02-16T10:24:00;101912.34;;;21.09;29.25
68399;BME280;56258;52.196;13.868;2023-02-16T10:26:37;101907.88;;;22.09;27.67
68399;BME280;56258;52.196;13.868;2023-02-16T10:29:12;101897.88;;;22.01;27.81
68399;BME280;56258;52.196;13.868;2023-02-16T10:31:42;101899.88;;;21.75;27.91
68399;BME280;56258;52.196;13.868;2023-02-16T10:34:47;101890.91;;;21.66;28.35
68399;BME280;56258;52.196;13.868;2023-02-16T10:40:13;101897.72;;;21.28;28.78
68399;BME280;56258;52.196;13.868;2023-02-16T10:43:12;101900.78;;;22.24;28.26
68399;BME280;56258;52.196;13.868;2023-02-16T10:45:57;101900.06;;;23.72;25.66
68399;BME280;56258;52.196;13.868;2023-02-16T10:48:26;101899.72;;;24.21;24.87
68399;BME280;56258;52.196;13.868;2023-02-16T10:50:59;101891.97;;;24.33;24.76
68399;BME280;56258;52.196;13.868;2023-02-16T10:55:57;101897.25;;;22.95;26.29
68399;BME280;56258;52.196;13.868;2023-02-16T10:58:27;101891.25;;;21.79;28.01
68399;BME280;56258;52.196;13.868;2023-02-16T11:01:15;101891.44;;;21.19;29.30
68399;BME280;56258;52.196;13.868;2023-02-16T11:03:47;101884.81;;;20.46;30.74
68399;BME280;56258;52.196;13.868;2023-02-16T11:06:22;101886.97;;;19.80;31.68
68399;BME280;56258;52.196;13.868;2023-02-16T11:08:53;101888.63;;;19.46;32.28
68399;BME280;56258;52.196;13.868;2023-02-16T11:11:46;101888.09;;;19.15;32.59
68399;BME280;56258;52.196;13.868;2023-02-16T11:14:28;101891.19;;;18.92;33.41
68399;BME280;56258;52.196;13.868;2023-02-16T11:17:07;101886.25;;;18.88;33.21
68399;BME280;56258;52.196;13.868;2023-02-16T11:19:40;101876.03;;;18.82;33.87
68399;BME280;56258;52.196;13.868;2023-02-16T11:22:28;101872.22;;;18.75;33.39
68399;BME280;56258;52.196;13.868;2023-02-16T11:24:55;101874.16;;;18.64;33.42
68399;BME280;56258;52.196;13.868;2023-02-16T11:27:24;101872.44;;;18.54;34.23
68399;BME280;56258;52.196;13.868;2023-02-16T11:30:16;101870.16;;;18.49;34.21
68399;BME280;56258;52.196;13.868;2023-02-16T11:32:50;101869.03;;;18.52;34.67
68399;BME280;56258;52.196;13.868;2023-02-16T11:35:17;101867.22;;;18.52;34.18
68399;BME280;56258;52.196;13.868;2023-02-16T11:37:44;101871.88;;;18.50;33.98
68399;BME280;56258;52.196;13.868;2023-02-16T11:40:28;101874.03;;;18.37;34.62
68399;BME280;56258;52.196;13.868;2023-02-16T11:42:59;101870.50;;;18.36;34.70
68399;BME280;56258;52.196;13.868;2023-02-16T11:45:34;101861.56;;;18.36;34.38
68399;BME280;56258;52.196;13.868;2023-02-16T11:48:09;101867.50;;;18.40;34.22
68399;BME280;56258;52.196;13.868;2023-02-16T11:50:39;101866.22;;;18.44;33.71
68399;BME280;56258;52.196;13.868;2023-02-16T11:53:58;101858.56;;;18.49;34.65
68399;BME280;56258;52.196;13.868;2023-02-16T11:56:26;101848.59;;;18.69;34.04
68399;BME280;56258;52.196;13.868;2023-02-16T11:59:07;101849.75;;;18.93;33.02
68399;BME280;56258;52.196;13.868;2023-02-16T12:09:52;101854.63;;;18.33;34.49
68399;BME280;56258;52.196;13.868;2023-02-16T12:12:44;101846.59;;;18.14;34.47
68399;BME280;56258;52.196;13.868;2023-02-16T12:15:24;101836.97;;;18.12;34.81
68399;BME280;56258;52.196;13.868;2023-02-16T12:21:01;101825.50;;;18.19;34.33
68399;BME280;56258;52.196;13.868;2023-02-16T12:26:30;101812.69;;;18.78;33.45
68399;BME280;56258;52.196;13.868;2023-02-16T12:29:05;101810.59;;;18.72;33.68
68399;BME280;56258;52.196;13.868;2023-02-16T12:31:48;101804.00;;;18.47;34.20
68399;BME280;56258;52.196;13.868;2023-02-16T12:34:32;101800.91;;;18.42;33.86
68399;BME280;56258;52.196;13.868;2023-02-16T12:44:52;101790.22;;;18.87;33.38
68399;BME280;56258;52.196;13.868;2023-02-16T12:47:31;101791.09;;;18.87;32.88
68399;BME280;56258;52.196;13.868;2023-02-16T12:50:13;101792.53;;;18.82;33.85
68399;BME280;56258;52.196;13.868;2023-02-16T12:53:04;101790.28;;;18.77;33.95
68399;BME280;56258;52.196;13.868;2023-02-16T12:55:56;101785.22;;;19.37;32.85
68399;BME280;56258;52.196;13.868;2023-02-16T12:58:29;101782.31;;;19.92;31.50
68399;BME280;56258;52.196;13.868;2023-02-16T13:01:02;101790.09;;;20.21;31.26
68399;BME280;56258;52.196;13.868;2023-02-16T13:03:38;101789.03;;;20.40;30.96
68399;BME280;56258;52.196;13.868;2023-02-16T13:11:48;101786.81;;;20.61;30.53
68399;BME280;56258;52.196;13.868;2023-02-16T13:14:19;101781.16;;;20.47;30.88
68399;BME280;56258;52.196;13.868;2023-02-16T13:16:56;101783.91;;;20.29;31.04
68399;BME280;56258;52.196;13.868;2023-02-16T13:19:25;101773.91;;;20.21;31.27
68399;BME280;56258;52.196;13.868;2023-02-16T13:29:50;101774.44;;;19.99;31.65
68399;BME280;56258;52.196;13.868;2023-02-16T13:35:06;101769.34;;;19.96;31.86
68399;BME280;56258;52.196;13.868;2023-02-16T13:45:40;101768.00;;;19.92;32.27
68399;BME280;56258;52.196;13.868;2023-02-16T13:48:29;101769.72;;;20.01;32.27
68399;BME280;56258;52.196;13.868;2023-02-16T13:51:00;101767.91;;;20.09;32.24
68399;BME280;56258;52.196;13.868;2023-02-16T13:53:35;101762.75;;;20.16;31.60
68399;BME280;56258;52.196;13.868;2023-02-16T13:56:30;101768.75;;;20.10;31.96
68399;BME280;56258;52.196;13.868;2023-02-16T13:59:56;101771.13;;;20.13;31.96
68399;BME280;56258;52.196;13.868;2023-02-16T14:02:50;101768.88;;;20.00;31.96
68399;BME280;56258;52.196;13.868;2023-02-16T14:05:23;101770.88;;;19.98;32.03
68399;BME280;56258;52.196;13.868;2023-02-16T14:08:18;101766.13;;;19.92;32.68
68399;BME280;56258;52.196;13.868;2023-02-16T14:13:29;101762.59;;;19.92;32.32
68399;BME280;56258;52.196;13.868;2023-02-16T14:18:41;101766.34;;;19.99;32.46
68399;BME280;56258;52.196;13.868;2023-02-16T14:21:39;101765.16;;;20.01;32.52
68399;BME280;56258;52.196;13.868;2023-02-16T14:24:11;101764.16;;;20.02;32.52
68399;BME280;56258;52.196;13.868;2023-02-16T14:27:02;101755.91;;;20.04;32.07
68399;BME280;56258;52.196;13.868;2023-02-16T14:29:31;101756.28;;;20.09;32.68
68399;BME280;56258;52.196;13.868;2023-02-16T14:34:54;101756.06;;;20.02;32.37
68399;BME280;56258;52.196;13.868;2023-02-16T14:37:40;101756.81;;;19.87;32.76
68399;BME280;56258;52.196;13.868;2023-02-16T14:40:16;101753.25;;;19.60;33.10
68399;BME280;56258;52.196;13.868;2023-02-16T14:42:49;101761.38;;;19.50;32.83
68399;BME280;56258;52.196;13.868;2023-02-16T14:45:54;101755.06;;;19.42;33.15
68399;BME280;56258;52.196;13.868;2023-02-16T14:51:39;101742.81;;;19.30;33.44
68399;BME280;56258;52.196;13.868;2023-02-16T14:58:04;101759.63;;;19.06;34.09
68399;BME280;56258;52.196;13.868;2023-02-16T15:00:42;101763.06;;;18.98;33.65
68399;BME280;56258;52.196;13.868;2023-02-16T15:03:19;101769.75;;;18.94;33.64